sensor_id;sensor_type;location;lat;lon;timestamp;P1;durP1;ratioP1;P2;durP2;ratioP2
29246;SDS011;16272;48.188;9.964;2023-04-07T00:01:42;10.07;;;3.85;;
29246;SDS011;16272;48.188;9.964;2023-04-07T00:04:09;10.17;;;3.87;;
29246;SDS011;16272;48.188;9.964;2023-04-07T00:06:34;10.88;;;3.90;;
29246;SDS011;16272;48.188;9.964;2023-04-07T00:08:59;10.53;;;4.00;;
29246;SDS011;16272;48.188;9.964;2023-04-07T00:11:25;11.00;;;3.80;;
29246;SDS011;16272;48.188;9.964;2023-04-07T00:13:50;10.67;;;3.83;;
29246;SDS011;16272;48.188;9.964;2023-04-07T00:16:16;11.20;;;4.03;;
29246;SDS011;16272;48.188;9.964;2023-04-07T00:18:41;12.17;;;4.00;;
29246;SDS011;16272;48.188;9.964;2023-04-07T00:21:07;11.87;;;4.40;;
29246;SDS011;16272;48.188;9.964;2023-04-07T00:23:34;11.07;;;3.93;;
29246;SDS011;16272;48.188;9.964;2023-04-07T00:26:00;10.80;;;3.92;;
29246;SDS011;16272;48.188;9.964;2023-04-07T00:28:25;10.43;;;4.27;;
29246;SDS011;16272;48.188;9.964;2023-04-07T00:30:50;11.00;;;3.90;;
29246;SDS011;16272;48.188;9.964;2023-04-07T00:33:16;9.57;;;3.67;;
29246;SDS011;16272;48.188;9.964;2023-04-07T00:35:41;11.50;;;3.77;;
29246;SDS011;16272;48.188;9.964;2023-04-07T00:38:06;10.73;;;4.27;;
29246;SDS011;16272;48.188;9.964;2023-04-07T00:40:31;10.37;;;3.60;;
29246;SDS011;16272;48.188;9.964;2023-04-07T00:43:01;12.57;;;4.10;;
29246;SDS011;16272;48.188;9.964;2023-04-07T00:45:26;11.65;;;4.15;;
29246;SDS011;16272;48.188;9.964;2023-04-07T00:47:51;9.87;;;3.97;;
29246;SDS011;16272;48.188;9.964;2023-04-07T00:50:17;11.50;;;4.23;;
29246;SDS011;16272;48.188;9.964;2023-04-07T00:52:43;10.65;;;4.15;;
29246;SDS011;16272;48.188;9.964;2023-04-07T00:55:09;12.10;;;4.47;;
29246;SDS011;16272;48.188;9.964;2023-04-07T00:57:34;12.20;;;4.18;;
29246;SDS011;16272;48.188;9.964;2023-04-07T01:00:01;12.60;;;4.43;;
29246;SDS011;16272;48.188;9.964;2023-04-07T01:02:36;13.30;;;4.88;;
29246;SDS011;16272;48.188;9.964;2023-04-07T01:05:20;11.83;;;3.97;;
29246;SDS011;16272;48.188;9.964;2023-04-07T01:10:36;11.00;;;4.20;;
29246;SDS011;16272;48.188;9.964;2023-04-07T01:16:01;12.48;;;4.78;;
29246;SDS011;16272;48.188;9.964;2023-04-07T01:18:31;13.37;;;4.53;;
29246;SDS011;16272;48.188;9.964;2023-04-07T01:21:00;11.57;;;4.60;;
29246;SDS011;16272;48.188;9.964;2023-04-07T01:23:51;12.77;;;4.95;;
29246;SDS011;16272;48.188;9.964;2023-04-07T01:26:27;12.00;;;4.85;;
29246;SDS011;16272;48.188;9.964;2023-04-07T01:31:58;13.10;;;4.67;;
29246;SDS011;16272;48.188;9.964;2023-04-07T01:34:25;11.70;;;4.95;;
29246;SDS011;16272;48.188;9.964;2023-04-07T01:36:53;13.05;;;4.68;;
29246;SDS011;16272;48.188;9.964;2023-04-07T01:39:20;13.52;;;5.15;;
29246;SDS011;16272;48.188;9.964;2023-04-07T01:41:47;12.27;;;4.80;;
29246;SDS011;16272;48.188;9.964;2023-04-07T01:44:14;11.33;;;4.37;;
29246;SDS011;16272;48.188;9.964;2023-04-07T01:46:40;13.43;;;5.10;;
29246;SDS011;16272;48.188;9.964;2023-04-07T01:49:05;12.17;;;4.77;;
29246;SDS011;16272;48.188;9.964;2023-04-07T01:51:31;12.25;;;4.82;;
29246;SDS011;16272;48.188;9.964;2023-04-07T01:53:58;13.27;;;5.23;;
29246;SDS011;16272;48.188;9.964;2023-04-07T01:56:26;13.25;;;5.30;;
29246;SDS011;16272;48.188;9.964;2023-04-07T01:58:52;13.25;;;4.72;;
29246;SDS011;16272;48.188;9.964;2023-04-07T02:01:17;13.67;;;5.20;;
29246;SDS011;16272;48.188;9.964;2023-04-07T02:03:48;11.83;;;4.80;;
29246;SDS011;16272;48.188;9.964;2023-04-07T02:06:21;15.10;;;5.53;;
29246;SDS011;16272;48.188;9.964;2023-04-07T02:08:49;13.38;;;4.88;;
29246;SDS011;16272;48.188;9.964;2023-04-07T02:11:20;12.27;;;4.65;;
29246;SDS011;16272;48.188;9.964;2023-04-07T02:13:46;12.50;;;4.72;;
29246;SDS011;16272;48.188;9.964;2023-04-07T02:16:11;12.53;;;4.80;;
29246;SDS011;16272;48.188;9.964;2023-04-07T02:18:38;13.90;;;4.93;;
29246;SDS011;16272;48.188;9.964;2023-04-07T02:21:13;15.05;;;5.30;;
29246;SDS011;16272;48.188;9.964;2023-04-07T02:23:39;14.60;;;5.67;;
29246;SDS011;16272;48.188;9.964;2023-04-07T02:26:05;13.63;;;4.97;;
29246;SDS011;16272;48.188;9.964;2023-04-07T02:28:30;14.57;;;5.57;;
29246;SDS011;16272;48.188;9.964;2023-04-07T02:30:55;13.10;;;5.17;;
29246;SDS011;16272;48.188;9.964;2023-04-07T02:33:21;13.53;;;5.00;;
29246;SDS011;16272;48.188;9.964;2023-04-07T02:35:46;14.47;;;5.10;;
29246;SDS011;16272;48.188;9.964;2023-04-07T02:38:11;12.77;;;4.80;;
29246;SDS011;16272;48.188;9.964;2023-04-07T02:40:37;14.18;;;5.30;;
29246;SDS011;16272;48.188;9.964;2023-04-07T02:43:02;13.37;;;5.37;;
29246;SDS011;16272;48.188;9.964;2023-04-07T02:45:29;13.85;;;5.00;;
29246;SDS011;16272;48.188;9.964;2023-04-07T02:47:55;12.97;;;5.23;;
29246;SDS011;16272;48.188;9.964;2023-04-07T02:50:22;13.57;;;5.17;;
29246;SDS011;16272;48.188;9.964;2023-04-07T02:52:49;13.65;;;5.47;;
29246;SDS011;16272;48.188;9.964;2023-04-07T02:55:15;13.37;;;5.50;;
29246;SDS011;16272;48.188;9.964;2023-04-07T02:57:42;12.52;;;5.15;;
29246;SDS011;16272;48.188;9.964;2023-04-07T03:00:07;15.70;;;5.60;;
29246;SDS011;16272;48.188;9.964;2023-04-07T03:02:34;14.35;;;5.43;;
29246;SDS011;16272;48.188;9.964;2023-04-07T03:04:59;12.27;;;4.83;;
29246;SDS011;16272;48.188;9.964;2023-04-07T03:07:24;14.27;;;5.32;;
29246;SDS011;16272;48.188;9.964;2023-04-07T03:09:50;13.63;;;5.33;;
29246;SDS011;16272;48.188;9.964;2023-04-07T03:12:15;14.30;;;6.00;;
29246;SDS011;16272;48.188;9.964;2023-04-07T03:14:40;12.73;;;5.40;;
29246;SDS011;16272;48.188;9.964;2023-04-07T03:17:06;14.17;;;5.27;;
29246;SDS011;16272;48.188;9.964;2023-04-07T03:19:33;13.27;;;5.27;;
29246;SDS011;16272;48.188;9.964;2023-04-07T03:21:59;12.93;;;5.23;;
29246;SDS011;16272;48.188;9.964;2023-04-07T03:24:24;17.00;;;5.72;;
29246;SDS011;16272;48.188;9.964;2023-04-07T03:26:50;14.07;;;5.13;;
29246;SDS011;16272;48.188;9.964;2023-04-07T03:29:15;14.47;;;5.53;;
29246;SDS011;16272;48.188;9.964;2023-04-07T03:31:42;14.23;;;5.13;;
29246;SDS011;16272;48.188;9.964;2023-04-07T03:34:08;13.20;;;5.25;;
29246;SDS011;16272;48.188;9.964;2023-04-07T03:36:33;14.07;;;5.30;;
29246;SDS011;16272;48.188;9.964;2023-04-07T03:38:58;14.30;;;5.40;;
29246;SDS011;16272;48.188;9.964;2023-04-07T03:41:24;14.80;;;5.57;;
29246;SDS011;16272;48.188;9.964;2023-04-07T03:43:49;13.18;;;5.15;;
29246;SDS011;16272;48.188;9.964;2023-04-07T03:46:15;13.17;;;5.37;;
29246;SDS011;16272;48.188;9.964;2023-04-07T03:48:40;13.70;;;5.33;;
29246;SDS011;16272;48.188;9.964;2023-04-07T03:51:05;13.33;;;5.27;;
29246;SDS011;16272;48.188;9.964;2023-04-07T03:53:31;13.88;;;5.43;;
29246;SDS011;16272;48.188;9.964;2023-04-07T03:55:56;15.27;;;5.13;;
29246;SDS011;16272;48.188;9.964;2023-04-07T03:58:22;14.50;;;5.37;;
29246;SDS011;16272;48.188;9.964;2023-04-07T04:00:47;12.90;;;5.43;;
29246;SDS011;16272;48.188;9.964;2023-04-07T04:03:20;13.87;;;5.53;;
29246;SDS011;16272;48.188;9.964;2023-04-07T04:05:45;14.60;;;5.13;;
29246;SDS011;16272;48.188;9.964;2023-04-07T04:08:10;14.63;;;5.83;;
29246;SDS011;16272;48.188;9.964;2023-04-07T04:10:42;12.87;;;5.03;;
29246;SDS011;16272;48.188;9.964;2023-04-07T04:13:07;13.63;;;5.10;;
29246;SDS011;16272;48.188;9.964;2023-04-07T04:15:32;14.17;;;5.67;;
29246;SDS011;16272;48.188;9.964;2023-04-07T04:17:58;12.40;;;4.67;;
29246;SDS011;16272;48.188;9.964;2023-04-07T04:20:23;11.73;;;5.20;;
29246;SDS011;16272;48.188;9.964;2023-04-07T04:22:48;11.80;;;4.53;;
29246;SDS011;16272;48.188;9.964;2023-04-07T04:25:15;12.33;;;4.70;;
29246;SDS011;16272;48.188;9.964;2023-04-07T04:27:41;14.13;;;5.35;;
29246;SDS011;16272;48.188;9.964;2023-04-07T04:30:06;12.00;;;4.87;;
29246;SDS011;16272;48.188;9.964;2023-04-07T04:32:32;12.50;;;5.03;;
29246;SDS011;16272;48.188;9.964;2023-04-07T04:34:58;15.70;;;5.82;;
29246;SDS011;16272;48.188;9.964;2023-04-07T04:37:23;13.63;;;5.43;;
29246;SDS011;16272;48.188;9.964;2023-04-07T04:39:49;13.13;;;5.35;;
29246;SDS011;16272;48.188;9.964;2023-04-07T04:42:17;14.33;;;5.30;;
29246;SDS011;16272;48.188;9.964;2023-04-07T04:44:42;13.57;;;5.32;;
29246;SDS011;16272;48.188;9.964;2023-04-07T04:47:07;13.10;;;5.80;;
29246;SDS011;16272;48.188;9.964;2023-04-07T04:49:39;13.77;;;5.50;;
29246;SDS011;16272;48.188;9.964;2023-04-07T04:52:05;12.88;;;5.15;;
29246;SDS011;16272;48.188;9.964;2023-04-07T04:54:30;13.47;;;5.77;;
29246;SDS011;16272;48.188;9.964;2023-04-07T04:56:57;12.57;;;4.85;;
29246;SDS011;16272;48.188;9.964;2023-04-07T04:59:22;11.37;;;4.87;;
29246;SDS011;16272;48.188;9.964;2023-04-07T05:01:47;12.02;;;4.63;;
29246;SDS011;16272;48.188;9.964;2023-04-07T05:04:13;12.57;;;4.97;;
29246;SDS011;16272;48.188;9.964;2023-04-07T05:06:38;11.87;;;4.80;;
29246;SDS011;16272;48.188;9.964;2023-04-07T05:09:03;12.70;;;4.83;;
29246;SDS011;16272;48.188;9.964;2023-04-07T05:11:29;12.50;;;4.57;;
29246;SDS011;16272;48.188;9.964;2023-04-07T05:13:54;11.53;;;4.33;;
29246;SDS011;16272;48.188;9.964;2023-04-07T05:16:26;12.35;;;5.13;;
29246;SDS011;16272;48.188;9.964;2023-04-07T05:18:52;12.73;;;5.00;;
29246;SDS011;16272;48.188;9.964;2023-04-07T05:21:26;11.77;;;4.75;;
29246;SDS011;16272;48.188;9.964;2023-04-07T05:23:53;11.73;;;4.83;;
29246;SDS011;16272;48.188;9.964;2023-04-07T05:26:18;14.02;;;4.70;;
29246;SDS011;16272;48.188;9.964;2023-04-07T05:28:44;12.33;;;4.63;;
29246;SDS011;16272;48.188;9.964;2023-04-07T05:31:10;12.63;;;4.90;;
29246;SDS011;16272;48.188;9.964;2023-04-07T05:33:37;20.17;;;7.47;;
29246;SDS011;16272;48.188;9.964;2023-04-07T05:36:08;23.48;;;8.27;;
29246;SDS011;16272;48.188;9.964;2023-04-07T05:38:39;18.58;;;7.60;;
29246;SDS011;16272;48.188;9.964;2023-04-07T05:41:12;16.25;;;6.45;;
29246;SDS011;16272;48.188;9.964;2023-04-07T05:43:39;14.83;;;6.33;;
29246;SDS011;16272;48.188;9.964;2023-04-07T05:46:05;16.42;;;6.88;;
29246;SDS011;16272;48.188;9.964;2023-04-07T05:48:30;15.73;;;6.07;;
29246;SDS011;16272;48.188;9.964;2023-04-07T05:50:56;14.17;;;6.10;;
29246;SDS011;16272;48.188;9.964;2023-04-07T05:53:29;15.77;;;6.43;;
29246;SDS011;16272;48.188;9.964;2023-04-07T05:55:54;13.80;;;5.57;;
29246;SDS011;16272;48.188;9.964;2023-04-07T05:58:28;15.47;;;5.43;;
29246;SDS011;16272;48.188;9.964;2023-04-07T06:00:53;12.88;;;5.35;;
29246;SDS011;16272;48.188;9.964;2023-04-07T06:03:19;12.93;;;5.60;;
29246;SDS011;16272;48.188;9.964;2023-04-07T06:05:48;13.82;;;5.50;;
29246;SDS011;16272;48.188;9.964;2023-04-07T06:08:13;14.83;;;5.97;;
29246;SDS011;16272;48.188;9.964;2023-04-07T06:10:38;14.57;;;5.77;;
29246;SDS011;16272;48.188;9.964;2023-04-07T06:13:05;13.90;;;5.70;;
29246;SDS011;16272;48.188;9.964;2023-04-07T06:15:31;14.07;;;5.68;;
29246;SDS011;16272;48.188;9.964;2023-04-07T06:17:57;16.00;;;6.17;;
29246;SDS011;16272;48.188;9.964;2023-04-07T06:20:22;15.80;;;5.93;;
29246;SDS011;16272;48.188;9.964;2023-04-07T06:22:48;15.00;;;5.83;;
29246;SDS011;16272;48.188;9.964;2023-04-07T06:25:13;14.73;;;5.67;;
29246;SDS011;16272;48.188;9.964;2023-04-07T06:27:38;14.20;;;5.97;;
29246;SDS011;16272;48.188;9.964;2023-04-07T06:30:04;13.63;;;5.47;;
29246;SDS011;16272;48.188;9.964;2023-04-07T06:32:30;13.37;;;5.47;;
29246;SDS011;16272;48.188;9.964;2023-04-07T06:34:56;13.27;;;5.72;;
29246;SDS011;16272;48.188;9.964;2023-04-07T06:37:22;14.43;;;5.37;;
29246;SDS011;16272;48.188;9.964;2023-04-07T06:39:49;15.23;;;6.15;;
29246;SDS011;16272;48.188;9.964;2023-04-07T06:42:14;14.63;;;5.70;;
29246;SDS011;16272;48.188;9.964;2023-04-07T06:44:39;14.07;;;5.60;;
29246;SDS011;16272;48.188;9.964;2023-04-07T06:47:05;12.27;;;5.10;;
29246;SDS011;16272;48.188;9.964;2023-04-07T06:49:30;14.60;;;6.07;;
29246;SDS011;16272;48.188;9.964;2023-04-07T06:51:56;14.43;;;5.97;;
29246;SDS011;16272;48.188;9.964;2023-04-07T06:54:21;13.77;;;6.20;;
29246;SDS011;16272;48.188;9.964;2023-04-07T06:56:46;15.60;;;6.33;;
29246;SDS011;16272;48.188;9.964;2023-04-07T06:59:12;15.88;;;6.70;;
29246;SDS011;16272;48.188;9.964;2023-04-07T07:01:37;14.60;;;6.50;;
29246;SDS011;16272;48.188;9.964;2023-04-07T07:04:02;16.07;;;6.90;;
29246;SDS011;16272;48.188;9.964;2023-04-07T07:06:29;16.95;;;6.80;;
29246;SDS011;16272;48.188;9.964;2023-04-07T07:08:55;15.77;;;6.47;;
29246;SDS011;16272;48.188;9.964;2023-04-07T07:11:21;17.00;;;6.70;;
29246;SDS011;16272;48.188;9.964;2023-04-07T07:13:46;15.93;;;6.93;;
29246;SDS011;16272;48.188;9.964;2023-04-07T07:16:12;13.30;;;5.87;;
29246;SDS011;16272;48.188;9.964;2023-04-07T07:18:37;16.67;;;6.60;;
29246;SDS011;16272;48.188;9.964;2023-04-07T07:21:03;16.23;;;6.53;;
29246;SDS011;16272;48.188;9.964;2023-04-07T07:23:28;14.70;;;6.00;;
29246;SDS011;16272;48.188;9.964;2023-04-07T07:25:55;15.52;;;6.38;;
29246;SDS011;16272;48.188;9.964;2023-04-07T07:28:20;14.53;;;6.27;;
29246;SDS011;16272;48.188;9.964;2023-04-07T07:30:46;14.80;;;6.50;;
29246;SDS011;16272;48.188;9.964;2023-04-07T07:33:11;13.27;;;5.87;;
29246;SDS011;16272;48.188;9.964;2023-04-07T07:35:39;13.97;;;6.43;;
29246;SDS011;16272;48.188;9.964;2023-04-07T07:38:05;13.88;;;6.57;;
29246;SDS011;16272;48.188;9.964;2023-04-07T07:40:31;14.77;;;6.53;;
29246;SDS011;16272;48.188;9.964;2023-04-07T07:42:57;16.83;;;6.97;;
29246;SDS011;16272;48.188;9.964;2023-04-07T07:45:24;13.57;;;6.40;;
29246;SDS011;16272;48.188;9.964;2023-04-07T07:47:50;12.68;;;5.80;;
29246;SDS011;16272;48.188;9.964;2023-04-07T07:50:15;13.50;;;5.73;;
29246;SDS011;16272;48.188;9.964;2023-04-07T07:52:42;13.17;;;5.77;;
29246;SDS011;16272;48.188;9.964;2023-04-07T07:55:08;12.93;;;6.07;;
29246;SDS011;16272;48.188;9.964;2023-04-07T07:57:40;13.30;;;5.63;;
29246;SDS011;16272;48.188;9.964;2023-04-07T08:00:06;13.57;;;5.63;;
29246;SDS011;16272;48.188;9.964;2023-04-07T08:02:38;12.30;;;5.22;;
29246;SDS011;16272;48.188;9.964;2023-04-07T08:05:03;12.43;;;5.68;;
29246;SDS011;16272;48.188;9.964;2023-04-07T08:07:30;13.83;;;5.73;;
29246;SDS011;16272;48.188;9.964;2023-04-07T08:09:56;13.32;;;6.50;;
29246;SDS011;16272;48.188;9.964;2023-04-07T08:12:21;13.80;;;6.10;;
29246;SDS011;16272;48.188;9.964;2023-04-07T08:14:48;14.63;;;5.87;;
29246;SDS011;16272;48.188;9.964;2023-04-07T08:17:14;12.07;;;5.15;;
29246;SDS011;16272;48.188;9.964;2023-04-07T08:19:39;13.10;;;5.77;;
29246;SDS011;16272;48.188;9.964;2023-04-07T08:22:04;12.90;;;5.47;;
29246;SDS011;16272;48.188;9.964;2023-04-07T08:24:31;11.77;;;5.38;;
29246;SDS011;16272;48.188;9.964;2023-04-07T08:26:56;11.27;;;4.88;;
29246;SDS011;16272;48.188;9.964;2023-04-07T08:29:22;12.33;;;5.67;;
29246;SDS011;16272;48.188;9.964;2023-04-07T08:31:50;11.40;;;5.33;;
29246;SDS011;16272;48.188;9.964;2023-04-07T08:34:15;13.18;;;5.60;;
29246;SDS011;16272;48.188;9.964;2023-04-07T08:36:41;12.50;;;5.82;;
29246;SDS011;16272;48.188;9.964;2023-04-07T08:39:06;12.97;;;5.13;;
29246;SDS011;16272;48.188;9.964;2023-04-07T08:41:39;12.23;;;5.47;;
29246;SDS011;16272;48.188;9.964;2023-04-07T08:44:06;12.18;;;5.20;;
29246;SDS011;16272;48.188;9.964;2023-04-07T08:46:33;11.00;;;4.88;;
29246;SDS011;16272;48.188;9.964;2023-04-07T08:49:00;14.37;;;5.97;;
29246;SDS011;16272;48.188;9.964;2023-04-07T08:51:29;12.75;;;5.50;;
29246;SDS011;16272;48.188;9.964;2023-04-07T08:54:08;12.73;;;5.80;;
29246;SDS011;16272;48.188;9.964;2023-04-07T08:56:39;11.75;;;5.38;;
29246;SDS011;16272;48.188;9.964;2023-04-07T08:59:06;11.65;;;5.55;;
29246;SDS011;16272;48.188;9.964;2023-04-07T09:01:33;12.43;;;5.90;;
29246;SDS011;16272;48.188;9.964;2023-04-07T09:04:01;12.00;;;5.43;;
29246;SDS011;16272;48.188;9.964;2023-04-07T09:06:28;11.30;;;5.00;;
29246;SDS011;16272;48.188;9.964;2023-04-07T09:08:59;10.00;;;4.30;;
29246;SDS011;16272;48.188;9.964;2023-04-07T09:11:25;11.00;;;5.28;;
29246;SDS011;16272;48.188;9.964;2023-04-07T09:13:51;9.97;;;4.40;;
29246;SDS011;16272;48.188;9.964;2023-04-07T09:16:17;11.48;;;4.88;;
29246;SDS011;16272;48.188;9.964;2023-04-07T09:18:43;10.77;;;4.87;;
29246;SDS011;16272;48.188;9.964;2023-04-07T09:21:08;10.53;;;4.90;;
29246;SDS011;16272;48.188;9.964;2023-04-07T09:23:38;13.03;;;5.50;;
29246;SDS011;16272;48.188;9.964;2023-04-07T09:26:18;11.68;;;5.15;;
29246;SDS011;16272;48.188;9.964;2023-04-07T09:28:46;12.00;;;5.20;;
29246;SDS011;16272;48.188;9.964;2023-04-07T09:31:14;10.55;;;4.65;;
29246;SDS011;16272;48.188;9.964;2023-04-07T09:33:41;11.13;;;5.43;;
29246;SDS011;16272;48.188;9.964;2023-04-07T09:36:07;10.67;;;4.70;;
29246;SDS011;16272;48.188;9.964;2023-04-07T09:38:33;11.37;;;4.80;;
29246;SDS011;16272;48.188;9.964;2023-04-07T09:41:13;9.93;;;4.45;;
29246;SDS011;16272;48.188;9.964;2023-04-07T09:43:43;9.40;;;4.65;;
29246;SDS011;16272;48.188;9.964;2023-04-07T09:46:11;10.30;;;4.25;;
29246;SDS011;16272;48.188;9.964;2023-04-07T09:48:40;9.83;;;4.40;;
29246;SDS011;16272;48.188;9.964;2023-04-07T09:51:16;9.18;;;4.20;;
29246;SDS011;16272;48.188;9.964;2023-04-07T09:53:43;10.63;;;4.35;;
29246;SDS011;16272;48.188;9.964;2023-04-07T09:56:10;9.90;;;4.63;;
29246;SDS011;16272;48.188;9.964;2023-04-07T09:58:37;11.40;;;4.80;;
29246;SDS011;16272;48.188;9.964;2023-04-07T10:01:05;12.48;;;4.70;;
29246;SDS011;16272;48.188;9.964;2023-04-07T10:06:04;9.43;;;4.60;;
29246;SDS011;16272;48.188;9.964;2023-04-07T10:08:31;9.77;;;4.32;;
29246;SDS011;16272;48.188;9.964;2023-04-07T10:11:02;10.30;;;4.20;;
29246;SDS011;16272;48.188;9.964;2023-04-07T10:13:32;8.60;;;3.80;;
29246;SDS011;16272;48.188;9.964;2023-04-07T10:15:59;10.20;;;4.53;;
29246;SDS011;16272;48.188;9.964;2023-04-07T10:18:28;11.27;;;4.68;;
29246;SDS011;16272;48.188;9.964;2023-04-07T10:21:02;11.65;;;5.10;;
29246;SDS011;16272;48.188;9.964;2023-04-07T10:26:20;10.07;;;4.82;;
29246;SDS011;16272;48.188;9.964;2023-04-07T10:28:50;10.80;;;5.85;;
29246;SDS011;16272;48.188;9.964;2023-04-07T10:31:20;10.77;;;4.30;;
29246;SDS011;16272;48.188;9.964;2023-04-07T10:36:17;9.97;;;3.63;;
29246;SDS011;16272;48.188;9.964;2023-04-07T10:43:58;8.15;;;3.40;;
29246;SDS011;16272;48.188;9.964;2023-04-07T10:46:24;8.83;;;3.50;;
29246;SDS011;16272;48.188;9.964;2023-04-07T10:49:06;8.27;;;3.70;;
29246;SDS011;16272;48.188;9.964;2023-04-07T10:51:33;10.13;;;3.50;;
29246;SDS011;16272;48.188;9.964;2023-04-07T10:54:18;10.35;;;3.40;;
29246;SDS011;16272;48.188;9.964;2023-04-07T10:57:04;8.40;;;3.20;;
29246;SDS011;16272;48.188;9.964;2023-04-07T10:59:34;8.00;;;3.10;;
29246;SDS011;16272;48.188;9.964;2023-04-07T11:04:39;8.57;;;3.55;;
29246;SDS011;16272;48.188;9.964;2023-04-07T11:07:06;9.57;;;3.70;;
29246;SDS011;16272;48.188;9.964;2023-04-07T11:09:31;8.77;;;3.70;;
29246;SDS011;16272;48.188;9.964;2023-04-07T11:12:05;7.90;;;3.57;;
29246;SDS011;16272;48.188;9.964;2023-04-07T11:14:33;8.88;;;3.60;;
29246;SDS011;16272;48.188;9.964;2023-04-07T11:17:02;9.95;;;4.10;;
29246;SDS011;16272;48.188;9.964;2023-04-07T11:19:28;8.93;;;3.53;;
29246;SDS011;16272;48.188;9.964;2023-04-07T11:24:42;11.95;;;4.22;;
29246;SDS011;16272;48.188;9.964;2023-04-07T11:27:15;9.82;;;3.80;;
29246;SDS011;16272;48.188;9.964;2023-04-07T11:29:41;10.05;;;4.55;;
29246;SDS011;16272;48.188;9.964;2023-04-07T11:32:07;9.07;;;4.03;;
29246;SDS011;16272;48.188;9.964;2023-04-07T11:34:35;9.77;;;4.55;;
29246;SDS011;16272;48.188;9.964;2023-04-07T11:40:04;11.68;;;4.35;;
29246;SDS011;16272;48.188;9.964;2023-04-07T11:42:32;9.80;;;4.28;;
29246;SDS011;16272;48.188;9.964;2023-04-07T11:44:59;10.10;;;4.00;;
29246;SDS011;16272;48.188;9.964;2023-04-07T11:47:37;9.77;;;4.07;;
29246;SDS011;16272;48.188;9.964;2023-04-07T11:50:05;11.38;;;5.07;;
29246;SDS011;16272;48.188;9.964;2023-04-07T11:52:44;9.90;;;3.80;;
29246;SDS011;16272;48.188;9.964;2023-04-07T11:55:18;10.38;;;4.63;;
29246;SDS011;16272;48.188;9.964;2023-04-07T11:57:45;10.73;;;4.70;;
29246;SDS011;16272;48.188;9.964;2023-04-07T12:00:13;10.15;;;5.00;;
29246;SDS011;16272;48.188;9.964;2023-04-07T12:02:39;9.98;;;5.03;;
29246;SDS011;16272;48.188;9.964;2023-04-07T12:05:05;10.48;;;4.97;;
29246;SDS011;16272;48.188;9.964;2023-04-07T12:07:31;9.53;;;4.40;;
29246;SDS011;16272;48.188;9.964;2023-04-07T12:09:57;10.68;;;4.95;;
29246;SDS011;16272;48.188;9.964;2023-04-07T12:12:26;10.40;;;4.20;;
29246;SDS011;16272;48.188;9.964;2023-04-07T12:14:52;9.65;;;4.15;;
29246;SDS011;16272;48.188;9.964;2023-04-07T12:17:19;9.27;;;4.00;;
29246;SDS011;16272;48.188;9.964;2023-04-07T12:19:52;9.80;;;4.57;;
29246;SDS011;16272;48.188;9.964;2023-04-07T12:22:17;10.57;;;4.43;;
29246;SDS011;16272;48.188;9.964;2023-04-07T12:24:44;10.75;;;4.60;;
29246;SDS011;16272;48.188;9.964;2023-04-07T12:27:11;10.00;;;4.38;;
29246;SDS011;16272;48.188;9.964;2023-04-07T12:29:37;10.37;;;4.20;;
29246;SDS011;16272;48.188;9.964;2023-04-07T12:32:03;9.90;;;4.57;;
29246;SDS011;16272;48.188;9.964;2023-04-07T12:34:29;10.67;;;4.30;;
29246;SDS011;16272;48.188;9.964;2023-04-07T12:36:54;10.18;;;3.95;;
29246;SDS011;16272;48.188;9.964;2023-04-07T12:39:20;11.53;;;4.60;;
29246;SDS011;16272;48.188;9.964;2023-04-07T12:41:46;10.80;;;4.60;;
29246;SDS011;16272;48.188;9.964;2023-04-07T12:44:14;10.95;;;4.72;;
29246;SDS011;16272;48.188;9.964;2023-04-07T12:46:40;13.15;;;4.57;;
29246;SDS011;16272;48.188;9.964;2023-04-07T12:49:07;9.57;;;4.13;;
29246;SDS011;16272;48.188;9.964;2023-04-07T12:51:32;10.90;;;4.70;;
29246;SDS011;16272;48.188;9.964;2023-04-07T12:53:58;10.53;;;4.13;;
29246;SDS011;16272;48.188;9.964;2023-04-07T12:56:31;10.40;;;4.82;;
29246;SDS011;16272;48.188;9.964;2023-04-07T12:58:58;9.80;;;4.67;;
29246;SDS011;16272;48.188;9.964;2023-04-07T13:01:23;11.40;;;4.63;;
29246;SDS011;16272;48.188;9.964;2023-04-07T13:03:48;11.07;;;4.77;;
29246;SDS011;16272;48.188;9.964;2023-04-07T13:06:16;10.40;;;4.23;;
29246;SDS011;16272;48.188;9.964;2023-04-07T13:08:41;9.87;;;3.80;;
29246;SDS011;16272;48.188;9.964;2023-04-07T13:11:07;8.27;;;3.00;;
29246;SDS011;16272;48.188;9.964;2023-04-07T13:13:32;7.23;;;2.57;;
29246;SDS011;16272;48.188;9.964;2023-04-07T13:15:59;9.53;;;3.83;;
29246;SDS011;16272;48.188;9.964;2023-04-07T13:18:24;8.65;;;3.05;;
29246;SDS011;16272;48.188;9.964;2023-04-07T13:20:50;7.50;;;2.70;;
29246;SDS011;16272;48.188;9.964;2023-04-07T13:23:15;7.93;;;2.87;;
29246;SDS011;16272;48.188;9.964;2023-04-07T13:25:41;9.27;;;3.28;;
29246;SDS011;16272;48.188;9.964;2023-04-07T13:28:06;7.80;;;2.57;;
29246;SDS011;16272;48.188;9.964;2023-04-07T13:30:31;7.50;;;2.53;;
29246;SDS011;16272;48.188;9.964;2023-04-07T13:33:00;7.37;;;2.83;;
29246;SDS011;16272;48.188;9.964;2023-04-07T13:35:26;6.65;;;2.22;;
29246;SDS011;16272;48.188;9.964;2023-04-07T13:37:51;6.67;;;2.13;;
29246;SDS011;16272;48.188;9.964;2023-04-07T13:40:17;7.60;;;2.50;;
29246;SDS011;16272;48.188;9.964;2023-04-07T13:42:43;6.15;;;2.13;;
29246;SDS011;16272;48.188;9.964;2023-04-07T13:45:08;6.37;;;2.20;;
29246;SDS011;16272;48.188;9.964;2023-04-07T13:47:34;6.20;;;2.17;;
29246;SDS011;16272;48.188;9.964;2023-04-07T13:50:00;7.25;;;2.25;;
29246;SDS011;16272;48.188;9.964;2023-04-07T13:52:26;6.87;;;2.17;;
29246;SDS011;16272;48.188;9.964;2023-04-07T13:54:52;6.82;;;2.25;;
29246;SDS011;16272;48.188;9.964;2023-04-07T13:57:18;6.13;;;1.90;;
29246;SDS011;16272;48.188;9.964;2023-04-07T13:59:48;5.72;;;1.75;;
29246;SDS011;16272;48.188;9.964;2023-04-07T14:02:16;6.90;;;2.10;;
29246;SDS011;16272;48.188;9.964;2023-04-07T14:04:49;7.80;;;2.22;;
29246;SDS011;16272;48.188;9.964;2023-04-07T14:07:14;5.72;;;1.90;;
29246;SDS011;16272;48.188;9.964;2023-04-07T14:09:46;6.03;;;2.17;;
29246;SDS011;16272;48.188;9.964;2023-04-07T14:12:12;7.57;;;2.20;;
29246;SDS011;16272;48.188;9.964;2023-04-07T14:14:38;7.07;;;2.03;;
29246;SDS011;16272;48.188;9.964;2023-04-07T14:17:03;6.43;;;2.03;;
29246;SDS011;16272;48.188;9.964;2023-04-07T14:19:28;5.63;;;1.60;;
29246;SDS011;16272;48.188;9.964;2023-04-07T14:21:54;5.70;;;1.70;;
29246;SDS011;16272;48.188;9.964;2023-04-07T14:24:20;7.10;;;1.52;;
29246;SDS011;16272;48.188;9.964;2023-04-07T14:26:45;5.97;;;2.53;;
29246;SDS011;16272;48.188;9.964;2023-04-07T14:29:11;5.43;;;1.50;;
29246;SDS011;16272;48.188;9.964;2023-04-07T14:31:37;5.82;;;1.77;;
29246;SDS011;16272;48.188;9.964;2023-04-07T14:34:02;5.97;;;2.03;;
29246;SDS011;16272;48.188;9.964;2023-04-07T14:36:28;12.40;;;4.70;;
29246;SDS011;16272;48.188;9.964;2023-04-07T14:38:56;5.95;;;1.98;;
29246;SDS011;16272;48.188;9.964;2023-04-07T14:41:23;7.25;;;2.45;;
29246;SDS011;16272;48.188;9.964;2023-04-07T14:43:49;5.57;;;1.27;;
29246;SDS011;16272;48.188;9.964;2023-04-07T14:46:23;4.90;;;1.27;;
29246;SDS011;16272;48.188;9.964;2023-04-07T14:48:48;6.05;;;1.60;;
29246;SDS011;16272;48.188;9.964;2023-04-07T14:51:16;5.70;;;1.52;;
29246;SDS011;16272;48.188;9.964;2023-04-07T14:53:41;4.97;;;1.30;;
29246;SDS011;16272;48.188;9.964;2023-04-07T14:56:07;5.27;;;1.40;;
29246;SDS011;16272;48.188;9.964;2023-04-07T14:58:33;6.03;;;1.40;;
29246;SDS011;16272;48.188;9.964;2023-04-07T15:01:03;4.88;;;1.20;;
29246;SDS011;16272;48.188;9.964;2023-04-07T15:03:38;5.77;;;1.40;;
29246;SDS011;16272;48.188;9.964;2023-04-07T15:06:11;4.43;;;1.20;;
29246;SDS011;16272;48.188;9.964;2023-04-07T15:08:39;4.57;;;1.00;;